首页
METAR-TAF:

METAR-TAF

机场 :

喀什机场

喀什, 中华人民共和国

纬度: 39-28N, 经度: 075-59E, 海拔: 1291米

当前天气观测

该预报发布于30分钟前的04:00 UTC
风速6节,风向西北
温度 2°C
湿度 64%
气压 1020 hPa
能见度10公里或以上
1500米以下无云,无积雨云

METAR: ZWSH 180400Z 31003MPS CAVOK 02/M04 Q1020 NOSIG

时间: 12:30 (04:30 UTC)

预报

该预报发布于7小时和25分钟前的21:05 UTC
预报有效从18日的 00点(UTC)到 18日的 24点(UTC)
风速8节,风向东转东北
能見度: 6000
多云层高于4000英尺
成为
从 18日的 05点(UTC)到 18日的 06点(UTC)
风速8节,风向东转东南

TAF: ZWSH 172105Z 1800/1824 06004MPS 6000 BKN040 TX05/1809Z TNM01/00Z BECMG 1805/1806 12004MPS

超过4000个机场的气象观测和天气预报(METAR&TAF报告)。

可查询的气象台以黄色和红色小点在地图上表示。

将鼠标移到小点上方,可查看气象台名称。

然后点击查看天气观测和预报。

如需切换地图:点击带黑十字的绿色按钮放大地图;点击带横线的绿色按钮缩小地图;或者点击绿色箭头查看邻近地区的地图。


METAR-TAF: